createdAt,value
2022-10-23T00:02:33.964Z,99996.67
2022-10-23T00:07:36.796Z,99992.63
2022-10-23T00:12:39.742Z,99991.60
2022-10-23T00:17:42.975Z,99993.02
2022-10-23T00:22:46.005Z,100001.79
2022-10-23T00:27:48.891Z,100011.58
2022-10-23T00:32:51.626Z,100008.33
2022-10-23T00:37:54.384Z,100009.04
2022-10-23T00:42:57.184Z,100012.74
2022-10-23T00:48:03.784Z,100009.92
2022-10-23T00:53:07.843Z,100012.95
2022-10-23T00:58:10.625Z,100016.89
2022-10-23T01:03:16.482Z,100018.88
2022-10-23T01:08:31.310Z,100020.00
2022-10-23T01:13:55.923Z,100023.29
2022-10-23T01:19:04.029Z,100030.97
2022-10-23T01:24:22.873Z,100038.54
2022-10-23T01:29:39.845Z,100043.46
2022-10-23T01:35:02.503Z,100046.07
2022-10-23T01:40:14.094Z,100045.58
2022-10-23T01:45:27.807Z,100043.84
2022-10-23T01:50:31.897Z,100045.23
2022-10-23T01:55:39.252Z,100043.62
2022-10-23T02:00:45.799Z,100046.04
2022-10-23T02:05:48.688Z,100048.43
2022-10-23T02:11:13.113Z,100052.33
2022-10-23T02:16:41.504Z,100055.34
2022-10-23T02:22:05.055Z,100049.78
2022-10-23T02:27:15.980Z,100052.46
2022-10-23T02:32:22.460Z,100062.65
2022-10-23T02:37:25.696Z,100072.67
2022-10-23T02:42:34.515Z,100072.65
2022-10-23T02:48:04.447Z,100073.08
2022-10-23T02:53:16.544Z,100075.71
2022-10-23T02:58:23.243Z,100068.95
2022-10-23T03:03:32.999Z,100072.91
2022-10-23T03:08:53.015Z,100072.70
2022-10-23T03:13:55.818Z,100061.38
2022-10-23T03:18:58.635Z,100067.64
2022-10-23T03:24:01.464Z,100070.83
2022-10-23T03:29:04.243Z,100069.41
2022-10-23T03:34:11.296Z,100060.37
2022-10-23T03:39:14.043Z,100069.45
2022-10-23T03:44:16.928Z,100084.02
2022-10-23T03:49:19.729Z,100083.98
2022-10-23T03:54:25.391Z,100091.45
2022-10-23T03:59:28.731Z,100088.92
2022-10-23T04:04:31.497Z,100082.46
2022-10-23T04:09:34.370Z,100083.69
2022-10-23T04:14:37.207Z,100087.20
2022-10-23T04:19:39.944Z,100100.50
2022-10-23T04:24:46.736Z,100102.48
2022-10-23T04:29:49.592Z,100104.21
2022-10-23T04:34:52.668Z,100093.88
2022-10-23T04:39:55.310Z,100091.31
2022-10-23T04:44:58.122Z,100099.62
2022-10-23T04:50:00.937Z,100121.58
2022-10-23T04:55:04.475Z,100133.34
2022-10-23T05:00:10.632Z,100133.14
2022-10-23T05:05:13.344Z,100131.16
2022-10-23T05:10:16.113Z,100137.24
2022-10-23T05:15:18.916Z,100145.60
2022-10-23T05:20:26.955Z,100140.78
2022-10-23T05:25:30.843Z,100136.94
2022-10-23T05:30:34.223Z,100136.98
2022-10-23T05:35:38.944Z,100141.20
2022-10-23T05:40:41.784Z,100143.89
2022-10-23T05:45:44.556Z,100148.38
2022-10-23T05:50:47.315Z,100149.40
2022-10-23T05:55:50.065Z,100142.03
2022-10-23T06:00:52.794Z,100152.98
2022-10-23T06:05:55.507Z,100151.58
2022-10-23T06:10:58.339Z,100154.38
2022-10-23T06:16:15.297Z,100154.71
2022-10-23T06:21:18.374Z,100165.23
2022-10-23T06:26:21.279Z,100177.69
2022-10-23T06:31:26.971Z,100181.99
2022-10-23T06:36:29.785Z,100183.55
2022-10-23T06:41:32.591Z,100185.82
2022-10-23T06:46:36.108Z,100184.83
2022-10-23T06:51:38.844Z,100193.12
2022-10-23T06:56:41.558Z,100191.65
2022-10-23T07:01:44.451Z,100197.98
2022-10-23T07:06:47.288Z,100200.64
2022-10-23T07:11:50.408Z,100213.95
2022-10-23T07:16:53.191Z,100201.63
2022-10-23T07:21:56.028Z,100210.52
2022-10-23T07:26:58.790Z,100231.73
2022-10-23T07:32:02.016Z,100237.62
2022-10-23T07:37:04.831Z,100232.23
2022-10-23T07:42:09.818Z,100238.15
2022-10-23T07:47:12.758Z,100237.13
2022-10-23T07:52:15.467Z,100241.74
2022-10-23T07:57:18.310Z,100231.73
2022-10-23T08:02:21.120Z,100251.34
2022-10-23T08:07:23.899Z,100254.14
2022-10-23T08:12:26.753Z,100256.88
2022-10-23T08:17:29.509Z,100251.95
2022-10-23T08:22:32.327Z,100252.42
2022-10-23T08:27:35.402Z,100257.66
2022-10-23T08:32:38.032Z,100259.46
2022-10-23T08:37:41.134Z,100265.70
2022-10-23T08:42:51.351Z,100262.73
2022-10-23T08:47:58.382Z,100268.27
2022-10-23T08:53:32.615Z,100278.85
2022-10-23T09:04:13.480Z,100294.89
2022-10-23T09:09:38.508Z,100288.65
2022-10-23T09:14:52.395Z,100302.42
2022-10-23T09:20:07.594Z,100317.22
2022-10-23T09:25:16.132Z,100316.80
2022-10-23T09:30:35.817Z,100324.50
2022-10-23T09:35:38.581Z,100325.13
2022-10-23T09:40:43.915Z,100317.20
2022-10-23T09:46:01.176Z,100305.70
2022-10-23T09:51:25.432Z,100304.02
2022-10-23T09:56:40.969Z,100307.35
2022-10-23T10:01:52.710Z,100309.03
2022-10-23T10:06:58.515Z,100310.22
2022-10-23T10:12:30.531Z,100309.65
2022-10-23T10:17:42.775Z,100308.23
2022-10-23T10:23:01.006Z,100303.77
2022-10-23T10:28:36.220Z,100294.91
2022-10-23T10:33:51.286Z,100295.15
2022-10-23T10:38:59.909Z,100304.13
2022-10-23T10:44:24.797Z,100302.73
2022-10-23T10:50:09.350Z,100303.11
2022-10-23T10:55:18.052Z,100299.91
2022-10-23T11:00:23.277Z,100293.51
2022-10-23T11:05:34.931Z,100287.06
2022-10-23T11:10:42.724Z,100279.09
2022-10-23T11:15:46.200Z,100278.77
2022-10-23T11:20:54.938Z,100268.88
2022-10-23T11:26:23.358Z,100268.84
2022-10-23T11:31:34.299Z,100264.48
2022-10-23T11:37:01.657Z,100259.34
2022-10-23T11:42:04.417Z,100254.82
2022-10-23T11:47:36.428Z,100243.20
2022-10-23T11:53:13.080Z,100248.39
2022-10-23T11:58:23.571Z,100251.20
2022-10-23T12:03:40.716Z,100253.20
2022-10-23T12:08:50.240Z,100250.02
2022-10-23T12:13:53.067Z,100247.14
2022-10-23T12:18:57.098Z,100248.66
2022-10-23T12:24:22.854Z,100253.48
2022-10-23T12:29:34.900Z,100262.98
2022-10-23T12:34:56.613Z,100258.89
2022-10-23T12:40:02.011Z,100262.98
2022-10-23T12:45:19.362Z,100265.13
2022-10-23T12:50:24.057Z,100268.38
2022-10-23T12:55:30.926Z,100269.23
2022-10-23T13:00:36.755Z,100270.71
2022-10-23T13:05:39.581Z,100278.73
2022-10-23T13:10:42.564Z,100289.30
2022-10-23T13:15:45.962Z,100288.50
2022-10-23T13:20:51.889Z,100289.73
2022-10-23T13:26:23.501Z,100289.02
2022-10-23T13:31:33.908Z,100291.95
2022-10-23T13:36:39.650Z,100299.44
2022-10-23T13:41:45.612Z,100301.88
2022-10-23T13:46:48.937Z,100290.55
2022-10-23T13:51:53.889Z,100294.95
2022-10-23T13:56:57.760Z,100292.44
2022-10-23T14:02:01.007Z,100299.34
2022-10-23T14:07:04.045Z,100302.05
2022-10-23T14:12:07.259Z,100297.62
2022-10-23T14:17:09.986Z,100288.46
2022-10-23T14:22:13.066Z,100291.38
2022-10-23T14:27:15.862Z,100285.67
2022-10-23T14:32:18.642Z,100279.40
2022-10-23T14:37:21.956Z,100280.21
2022-10-23T14:42:26.970Z,100275.40
2022-10-23T14:47:32.276Z,100277.29
2022-10-23T14:52:34.956Z,100284.39
2022-10-23T14:57:37.759Z,100281.23
2022-10-23T15:02:40.689Z,100272.11
2022-10-23T15:07:43.377Z,100272.10
2022-10-23T15:12:46.466Z,100270.27
2022-10-23T15:17:49.569Z,100267.59
2022-10-23T15:22:52.303Z,100265.57
2022-10-23T15:27:55.044Z,100252.30
2022-10-23T15:32:57.917Z,100242.02
2022-10-23T15:38:00.694Z,100243.94
2022-10-23T15:43:05.029Z,100247.84
2022-10-23T15:48:08.606Z,100248.45
2022-10-23T15:58:49.947Z,100266.29
2022-10-23T16:03:53.174Z,100266.23
2022-10-23T16:08:56.037Z,100262.02
2022-10-23T16:14:00.046Z,100265.88
2022-10-23T16:19:04.669Z,100259.30
2022-10-23T16:24:08.597Z,100265.33
2022-10-23T16:29:11.830Z,100267.61
2022-10-23T16:34:14.711Z,100272.06
2022-10-23T16:39:19.113Z,100277.55
2022-10-23T16:44:21.835Z,100280.34
2022-10-23T16:49:24.606Z,100277.04
2022-10-23T16:54:27.372Z,100271.23
2022-10-23T16:59:30.229Z,100271.36
2022-10-23T17:04:32.968Z,100273.16
2022-10-23T17:09:35.871Z,100277.51
2022-10-23T17:14:39.275Z,100284.33
2022-10-23T17:19:46.514Z,100278.72
2022-10-23T17:24:52.961Z,100286.08
2022-10-23T17:29:56.969Z,100280.73
2022-10-23T17:34:59.690Z,100280.82
2022-10-23T17:40:02.707Z,100278.02
2022-10-23T17:45:06.213Z,100267.86
2022-10-23T17:50:09.620Z,100269.88
2022-10-23T17:55:12.382Z,100276.45
2022-10-23T18:00:16.270Z,100270.94
2022-10-23T18:05:18.999Z,100274.65
2022-10-23T18:10:21.739Z,100279.63
2022-10-23T18:15:24.559Z,100283.50
2022-10-23T18:20:27.743Z,100279.45
2022-10-23T18:25:31.033Z,100279.33
2022-10-23T18:35:42.065Z,100265.61
2022-10-23T18:40:45.055Z,100270.39
2022-10-23T18:45:47.936Z,100277.80
2022-10-23T18:50:50.662Z,100266.09
2022-10-23T18:55:53.462Z,100271.10
2022-10-23T19:00:56.226Z,100280.64
2022-10-23T19:05:59.122Z,100282.88
2022-10-23T19:11:01.906Z,100284.64
2022-10-23T19:16:08.431Z,100291.46
2022-10-23T19:21:11.848Z,100291.63
2022-10-23T19:26:15.373Z,100293.74
2022-10-23T19:31:18.773Z,100273.36
2022-10-23T19:36:23.574Z,100265.29
2022-10-23T19:41:26.574Z,100266.16
2022-10-23T19:46:29.355Z,100270.47
2022-10-23T19:51:32.885Z,100269.19
2022-10-23T19:56:36.663Z,100264.50
2022-10-23T20:01:39.625Z,100262.77
2022-10-23T20:06:42.489Z,100263.02
2022-10-23T20:11:45.489Z,100262.23
2022-10-23T20:16:51.126Z,100255.81
2022-10-23T20:21:57.813Z,100247.65
2022-10-23T20:27:00.647Z,100258.30
2022-10-23T20:32:03.497Z,100253.33
2022-10-23T20:37:06.248Z,100244.45
2022-10-23T20:42:09.019Z,100236.33
2022-10-23T20:47:11.830Z,100225.95
2022-10-23T20:52:14.563Z,100214.62
2022-10-23T20:57:20.548Z,100205.89
2022-10-23T21:02:24.302Z,100217.90
2022-10-23T21:07:27.196Z,100214.51
2022-10-23T21:12:29.990Z,100216.30
2022-10-23T21:17:36.167Z,100222.53
2022-10-23T21:22:39.189Z,100229.12
2022-10-23T21:27:42.197Z,100233.85
2022-10-23T21:32:45.037Z,100232.65
2022-10-23T21:37:47.715Z,100239.16
2022-10-23T21:42:50.440Z,100247.10
2022-10-23T21:47:53.282Z,100236.00
2022-10-23T21:52:57.212Z,100234.63
2022-10-23T21:58:00.011Z,100236.02
2022-10-23T22:03:02.823Z,100230.32
2022-10-23T22:08:06.025Z,100231.55
2022-10-23T22:13:08.824Z,100228.31
2022-10-23T22:18:11.625Z,100235.83
2022-10-23T22:23:14.527Z,100233.14
2022-10-23T22:28:17.838Z,100233.05
2022-10-23T22:33:20.643Z,100231.45
2022-10-23T22:38:23.442Z,100236.46
2022-10-23T22:43:26.242Z,100232.83
2022-10-23T22:48:29.042Z,100239.45
2022-10-23T22:53:33.031Z,100239.57
2022-10-23T22:58:37.149Z,100244.02
2022-10-23T23:03:40.289Z,100249.52
2022-10-23T23:08:43.805Z,100247.31
2022-10-23T23:13:47.921Z,100251.13
2022-10-23T23:18:51.276Z,100238.45
2022-10-23T23:23:54.750Z,100231.69
2022-10-23T23:28:57.492Z,100232.52
2022-10-23T23:34:00.398Z,100222.98
2022-10-23T23:44:12.246Z,100198.77
2022-10-23T23:49:15.048Z,100201.71
2022-10-23T23:54:18.158Z,100201.40
2022-10-23T23:59:20.851Z,100201.27
